Time;durP1;ratioP1;P1;durP2;ratioP2;P2;SDS_P1;SDS_P2;PMS_P1;PMS_P2;Temp;Humidity;BMP_temperature;BMP_pressure;BME280_temperature;BME280_humidity;BME280_pressure;Samples;Min_cycle;Max_cycle;Signal;HPM_P1;HPM_P2
2023/06/19 00:00:02;;;;;;;8.43;7.72;;;;;;;-141.84;55.59;21332.31;4991878;28;20682;-60
2023/06/19 00:02:32;;;;;;;9.55;8.65;;;;;;;-141.84;55.66;21297.75;4991784;28;20227;-59
2023/06/19 00:05:01;;;;;;;8.73;7.97;;;;;;;-141.84;55.99;21314.00;4991185;28;20221;-60
2023/06/19 00:07:29;;;;;;;8.57;7.88;;;;;;;-141.84;56.12;21305.88;4991598;28;20219;-60
2023/06/19 00:09:58;;;;;;;8.38;7.68;;;;;;;-141.84;56.46;21253.00;4992154;28;20319;-59
2023/06/19 00:12:26;;;;;;;8.50;7.80;;;;;;;-141.84;56.19;21291.66;4992293;28;20246;-60
2023/06/19 00:14:55;;;;;;;8.75;8.05;;;;;;;-141.84;56.15;21307.91;4992081;28;20200;-60
2023/06/19 00:17:25;;;;;;;9.20;8.40;;;;;;;-141.84;55.94;21334.34;4991124;28;20204;-61
2023/06/19 00:19:55;;;;;;;9.02;8.23;;;;;;;-141.84;56.44;21309.94;4991382;28;20208;-59
2023/06/19 00:22:25;;;;;;;8.45;7.75;;;;;;;-141.84;56.39;21285.53;4990789;28;20298;-60
2023/06/19 00:24:54;;;;;;;8.77;7.97;;;;;;;-141.84;56.32;21309.94;4990328;28;20290;-60
2023/06/19 00:27:24;;;;;;;8.43;7.63;;;;;;;-141.84;56.22;21320.09;4991167;28;20238;-61
2023/06/19 00:29:52;;;;;;;9.07;8.27;;;;;;;-141.84;55.67;21328.25;4991739;28;20199;-59
2023/06/19 00:32:21;;;;;;;8.15;7.45;;;;;;;-141.84;55.82;21336.38;4990986;28;20290;-59
2023/06/19 00:38:39;;;;;;;8.90;8.07;;;;;;;-141.84;55.12;21354.66;4991074;28;20268;-61
2023/06/19 00:41:08;;;;;;;9.15;8.35;;;;;;;-141.84;54.95;21407.53;4992191;28;20199;-60
2023/06/19 00:43:37;;;;;;;8.50;7.70;;;;;;;-141.84;54.79;21415.66;4991280;28;20572;-60
2023/06/19 00:46:06;;;;;;;8.05;7.40;;;;;;;-141.84;54.38;21417.69;4991034;28;20291;-59
2023/06/19 00:48:35;;;;;;;8.43;7.72;;;;;;;-141.84;54.39;21436.00;4991498;28;20312;-60
2023/06/19 00:51:03;;;;;;;8.50;7.70;;;;;;;-141.84;54.41;21391.28;4990957;28;20235;-62
2023/06/19 00:53:34;;;;;;;8.55;7.85;;;;;;;-141.84;54.53;21405.50;4991496;28;20204;-61
2023/06/19 00:56:06;;;;;;;8.18;7.50;;;;;;;-141.84;54.60;21415.66;4991432;28;20366;-59
2023/06/19 00:58:35;;;;;;;8.38;7.68;;;;;;;-141.84;54.46;21429.91;4991681;28;20212;-60
2023/06/19 01:01:03;;;;;;;8.43;7.72;;;;;;;-141.84;54.31;21415.66;4990118;28;20733;-61
2023/06/19 01:03:37;;;;;;;8.25;7.45;;;;;;;-141.84;54.10;21438.03;4990775;28;20192;-60
2023/06/19 01:06:11;;;;;;;8.73;7.90;;;;;;;-141.84;54.35;21458.38;4991132;28;20195;-59
2023/06/19 01:08:50;;;;;;;8.45;7.38;;;;;;;-141.84;54.27;21395.34;4991505;28;20187;-60
2023/06/19 01:11:26;;;;;;;9.10;8.30;;;;;;;-141.84;53.96;21454.28;4991341;28;20192;-59
2023/06/19 01:13:59;;;;;;;8.40;7.60;;;;;;;-141.84;54.36;21397.38;4991006;28;20666;-59
2023/06/19 01:16:30;;;;;;;8.50;7.70;;;;;;;-141.84;54.30;21425.84;4990762;28;20191;-61
2023/06/19 01:19:00;;;;;;;8.30;7.60;;;;;;;-141.84;54.40;21431.94;4990934;28;20647;-60
2023/06/19 01:21:28;;;;;;;8.15;7.53;;;;;;;-141.84;54.53;21393.31;4990764;28;20207;-61
2023/06/19 01:23:58;;;;;;;7.95;7.25;;;;;;;-141.84;54.53;21399.41;4991454;28;20203;-60
2023/06/19 01:26:27;;;;;;;8.55;7.85;;;;;;;-141.84;54.06;21391.28;4991286;28;20882;-60
2023/06/19 01:28:57;;;;;;;8.07;7.38;;;;;;;-141.84;54.30;21381.09;4991204;28;20242;-60
2023/06/19 01:31:31;;;;;;;9.23;8.38;;;;;;;-141.84;53.98;21401.44;4985052;28;20211;-60
2023/06/19 01:34:02;;;;;;;9.00;8.13;;;;;;;-141.84;53.50;21444.13;4991092;28;20223;-59
2023/06/19 01:36:31;;;;;;;8.20;7.50;;;;;;;-141.84;53.34;21427.88;4992267;28;20202;-60
2023/06/19 01:39:01;;;;;;;8.43;7.63;;;;;;;-141.84;53.64;21411.59;4995099;28;20223;-60
2023/06/19 01:41:30;;;;;;;8.20;7.50;;;;;;;-141.84;53.65;21399.41;4995174;28;20278;-60
2023/06/19 01:44:00;;;;;;;8.50;7.80;;;;;;;-141.84;54.17;21407.53;4995040;28;20286;-60
2023/06/19 01:46:28;;;;;;;9.05;8.15;;;;;;;-141.84;53.84;21440.06;4986404;28;20286;-61
2023/06/19 01:48:57;;;;;;;8.70;7.90;;;;;;;-141.84;54.04;21446.16;4994849;28;20196;-60
2023/06/19 01:51:25;;;;;;;9.27;8.25;;;;;;;-141.84;54.00;21407.53;4993685;28;20212;-60
2023/06/19 01:53:54;;;;;;;7.90;7.20;;;;;;;-141.84;54.43;21350.59;4994254;28;20758;-59
2023/06/19 01:56:24;;;;;;;9.15;8.35;;;;;;;-141.84;54.69;21364.84;4994812;28;20231;-61
2023/06/19 01:58:54;;;;;;;8.65;7.95;;;;;;;-141.84;54.90;21346.53;4994732;28;20252;-60
2023/06/19 02:01:22;;;;;;;9.00;8.20;;;;;;;-141.84;55.31;21338.41;4993774;28;20234;-59
2023/06/19 02:03:51;;;;;;;10.13;8.23;;;;;;;-141.84;55.16;21328.25;4994333;28;20196;-60
2023/06/19 02:06:21;;;;;;;8.70;7.90;;;;;;;-141.84;55.50;21311.97;4992642;28;20196;-60
2023/06/19 02:08:49;;;;;;;9.10;8.30;;;;;;;-141.84;55.19;21346.53;4991547;28;20637;-59
2023/06/19 02:11:18;;;;;;;8.65;7.88;;;;;;;-141.84;55.47;21301.81;4994243;28;20765;-60
2023/06/19 02:13:48;;;;;;;8.50;7.80;;;;;;;-141.84;55.64;21293.69;4994426;28;20298;-60
2023/06/19 02:16:17;;;;;;;8.98;8.18;;;;;;;-141.84;56.18;21289.59;4993834;28;20277;-60
2023/06/19 02:18:45;;;;;;;8.50;7.72;;;;;;;-141.84;56.46;21255.03;4994449;28;20882;-61
2023/06/19 02:21:14;;;;;;;9.02;8.23;;;;;;;-141.84;56.69;21232.69;4993611;28;20618;-59
2023/06/19 02:23:42;;;;;;;8.65;7.85;;;;;;;-141.84;56.80;21253.00;4994272;28;20229;-61
2023/06/19 02:26:11;;;;;;;9.45;8.55;;;;;;;-141.84;56.32;21289.59;4994237;28;20196;-59
2023/06/19 02:28:39;;;;;;;8.82;7.90;;;;;;;-141.84;56.81;21240.81;4993787;28;20269;-59
2023/06/19 02:31:09;;;;;;;8.45;7.68;;;;;;;-141.84;56.98;21214.38;4990777;28;20202;-60
2023/06/19 02:33:37;;;;;;;9.35;8.55;;;;;;;-141.84;56.57;21255.03;4978303;28;20663;-59
2023/06/19 02:36:06;;;;;;;9.00;8.07;;;;;;;-141.84;56.67;21269.28;4994073;28;20229;-60
2023/06/19 02:38:35;;;;;;;9.93;9.02;;;;;;;-141.84;56.37;21246.91;4993781;28;20290;-61
2023/06/19 02:41:04;;;;;;;9.50;8.60;;;;;;;-141.84;56.20;21277.41;4993744;28;20706;-60
2023/06/19 02:43:32;;;;;;;9.30;8.50;;;;;;;-141.84;56.46;21253.00;4993911;28;20302;-59
2023/06/19 02:46:01;;;;;;;9.02;8.23;;;;;;;-141.84;56.68;21224.56;4993309;28;20196;-60
2023/06/19 02:48:31;;;;;;;8.98;8.10;;;;;;;-141.84;56.49;21261.16;4992427;28;20574;-60
2023/06/19 02:50:59;;;;;;;9.50;8.50;;;;;;;-141.84;56.30;21242.84;4993210;28;20322;-60
2023/06/19 02:53:28;;;;;;;9.05;8.23;;;;;;;-141.84;56.44;21263.19;4993678;28;20204;-60
2023/06/19 02:55:56;;;;;;;9.77;8.77;;;;;;;-141.84;56.26;21259.13;4993929;28;20287;-59
2023/06/19 02:58:25;;;;;;;8.88;8.00;;;;;;;-141.84;56.29;21255.03;4993348;28;20290;-60
2023/06/19 03:00:54;;;;;;;9.27;8.48;;;;;;;-141.84;55.57;21305.88;4988170;28;20211;-60
2023/06/19 03:03:23;;;;;;;9.20;8.40;;;;;;;-141.84;56.11;21234.72;4993926;28;20210;-60
2023/06/19 03:05:53;;;;;;;8.85;8.15;;;;;;;-141.84;56.15;21224.56;4993102;28;20208;-60
2023/06/19 03:08:22;;;;;;;8.82;7.93;;;;;;;-141.84;56.18;21240.81;4992882;28;20222;-61
2023/06/19 03:10:50;;;;;;;9.32;8.52;;;;;;;-141.84;56.33;21273.34;4987524;28;20231;-61
2023/06/19 03:13:19;;;;;;;8.10;7.40;;;;;;;-141.84;56.59;21228.63;4993290;28;20298;-60
2023/06/19 03:15:48;;;;;;;8.50;7.80;;;;;;;-141.84;56.53;21220.47;4992545;28;20286;-60
2023/06/19 03:18:16;;;;;;;10.35;8.23;;;;;;;-141.84;56.79;21240.81;4993087;28;20217;-59
2023/06/19 03:20:45;;;;;;;9.60;8.80;;;;;;;-141.84;56.32;21255.03;4992110;28;20306;-60
2023/06/19 03:23:14;;;;;;;9.32;8.52;;;;;;;-141.84;56.37;21255.03;4992858;28;20207;-60
2023/06/19 03:25:43;;;;;;;9.38;8.57;;;;;;;-141.84;56.12;21295.72;4993374;28;20294;-59
2023/06/19 03:28:12;;;;;;;8.57;7.82;;;;;;;-141.84;56.39;21240.81;4992997;28;20235;-59
2023/06/19 03:30:40;;;;;;;8.73;7.95;;;;;;;-141.84;56.29;21291.66;4992239;28;20380;-60
2023/06/19 03:33:09;;;;;;;9.00;8.20;;;;;;;-141.84;55.64;21309.94;4992546;28;20617;-60
2023/06/19 03:35:37;;;;;;;9.45;8.63;;;;;;;-141.84;55.58;21299.78;4992867;28;20199;-60
2023/06/19 03:38:06;;;;;;;9.13;8.32;;;;;;;-141.84;55.71;21305.88;4992910;28;20199;-60
2023/06/19 03:40:36;;;;;;;8.82;8.02;;;;;;;-141.84;55.53;21297.75;4992587;28;20271;-60
2023/06/19 03:43:04;;;;;;;9.15;8.25;;;;;;;-141.84;55.76;21322.13;4992852;28;20227;-59
2023/06/19 03:45:33;;;;;;;9.05;8.25;;;;;;;-141.84;55.35;21366.88;4992088;28;20496;-59
2023/06/19 03:48:01;;;;;;;9.20;8.40;;;;;;;-141.84;55.21;21354.66;4990629;28;20210;-59
2023/06/19 03:50:30;;;;;;;8.20;7.50;;;;;;;-141.84;55.24;21358.75;4990645;28;20218;-59
2023/06/19 03:52:58;;;;;;;8.85;8.05;;;;;;;-141.84;54.96;21391.28;4991463;28;20282;-60
2023/06/19 03:55:27;;;;;;;9.18;8.32;;;;;;;-141.84;55.19;21383.13;4991916;28;20286;-60
2023/06/19 03:57:57;;;;;;;9.23;8.27;;;;;;;-141.84;55.34;21393.31;4991980;28;20302;-59
2023/06/19 04:00:25;;;;;;;8.52;7.72;;;;;;;-141.84;55.41;21358.75;4990834;28;20354;-60
2023/06/19 04:02:54;;;;;;;9.68;8.77;;;;;;;-141.84;54.85;21429.91;4991838;28;20202;-60
2023/06/19 04:05:23;;;;;;;10.00;8.55;;;;;;;-141.84;54.66;21407.53;4992067;28;20205;-60
2023/06/19 04:07:52;;;;;;;9.55;8.55;;;;;;;-141.84;54.83;21366.88;4991305;28;20261;-61
2023/06/19 04:10:20;;;;;;;9.77;8.93;;;;;;;-141.84;54.33;21429.91;4990964;28;20239;-61
2023/06/19 04:12:49;;;;;;;9.23;8.40;;;;;;;-141.84;54.58;21454.28;4991082;28;20199;-61
2023/06/19 04:15:19;;;;;;;9.43;8.65;;;;;;;-141.84;54.32;21436.00;4992018;28;20619;-60
2023/06/19 04:17:47;;;;;;;9.48;8.57;;;;;;;-141.84;54.58;21438.03;4992302;28;20310;-60
2023/06/19 04:20:16;;;;;;;9.23;8.43;;;;;;;-141.84;54.83;21407.53;4987355;28;20318;-60
2023/06/19 04:22:45;;;;;;;10.15;8.88;;;;;;;-141.84;54.95;21395.34;4991043;28;20279;-60
2023/06/19 04:25:13;;;;;;;9.70;8.73;;;;;;;-141.84;54.50;21442.09;4992225;28;20294;-60
2023/06/19 04:27:44;;;;;;;10.00;9.07;;;;;;;-141.84;54.40;21450.22;4991756;28;20683;-60
2023/06/19 04:30:13;;;;;;;9.90;8.95;;;;;;;-141.84;54.07;21472.59;4992637;28;20230;-60
2023/06/19 04:32:43;;;;;;;9.38;8.57;;;;;;;-141.84;54.08;21468.53;4977924;28;20204;-60
2023/06/19 04:35:12;;;;;;;9.40;8.50;;;;;;;-141.84;54.24;21472.59;4973228;28;20193;-60
2023/06/19 04:37:41;;;;;;;8.77;8.00;;;;;;;-141.84;54.50;21480.72;4973205;28;20243;-65
2023/06/19 04:40:10;;;;;;;9.25;8.35;;;;;;;-141.84;54.44;21474.63;4973295;28;20266;-66
2023/06/19 04:42:39;;;;;;;10.27;9.27;;;;;;;-141.84;54.03;21497.00;4973416;28;20208;-66
2023/06/19 04:45:09;;;;;;;9.70;8.70;;;;;;;-141.84;53.77;21513.25;4992498;28;20204;-66
2023/06/19 04:47:37;;;;;;;9.00;8.30;;;;;;;-141.84;53.61;21555.97;4992654;28;20199;-66
2023/06/19 04:50:21;;;;;;;9.00;8.10;;;;;;;-141.84;53.23;21619.00;4986632;28;20192;-66
2023/06/19 04:52:51;;;;;;;9.65;8.70;;;;;;;-141.84;52.84;21688.13;4992463;28;20737;-66
2023/06/19 04:55:21;;;;;;;9.18;8.35;;;;;;;-141.84;52.25;21747.09;4992473;28;20230;-65
2023/06/19 04:57:49;;;;;;;9.70;8.70;;;;;;;-141.84;51.71;21822.31;4992383;28;20234;-67
2023/06/19 05:00:19;;;;;;;10.20;8.98;;;;;;;-141.84;50.46;21950.44;4992031;28;20258;-65
2023/06/19 05:02:48;;;;;;;10.05;9.10;;;;;;;-141.84;49.26;22035.84;4992635;28;20187;-65
2023/06/19 05:05:17;;;;;;;9.02;8.13;;;;;;;-141.84;48.83;22084.66;4991942;28;20882;-66
2023/06/19 05:07:50;;;;;;;10.20;9.20;;;;;;;-141.84;48.41;22090.75;4991878;28;20278;-65
2023/06/19 05:10:19;;;;;;;9.90;9.07;;;;;;;-141.84;48.46;22084.66;4991945;28;20679;-66
2023/06/19 05:12:48;;;;;;;10.40;9.50;;;;;;;-141.84;48.70;22001.28;4991950;28;20262;-65
2023/06/19 05:15:16;;;;;;;9.27;8.48;;;;;;;-141.84;49.14;21952.47;4991690;28;20242;-65
2023/06/19 05:17:46;;;;;;;9.13;8.32;;;;;;;-141.84;49.74;21921.97;4992348;28;20242;-66
2023/06/19 05:20:15;;;;;;;10.25;9.35;;;;;;;-141.84;50.25;21858.94;4991802;28;20207;-65
2023/06/19 05:22:44;;;;;;;8.30;7.57;;;;;;;-141.84;51.45;21806.06;4991941;28;20227;-65
2023/06/19 05:25:14;;;;;;;8.88;8.07;;;;;;;-141.84;52.13;21785.72;4992120;28;20266;-65
2023/06/19 05:27:42;;;;;;;9.68;8.55;;;;;;;-141.84;52.59;21745.06;4992398;28;20203;-66
2023/06/19 05:30:12;;;;;;;14.55;9.45;;;;;;;-141.84;53.13;21704.38;4992069;28;20262;-67
2023/06/19 05:32:40;;;;;;;9.32;8.52;;;;;;;-141.84;53.33;21684.06;4991806;28;20246;-67
2023/06/19 05:35:09;;;;;;;10.38;9.38;;;;;;;-141.84;53.51;21708.47;4991940;28;20204;-65
2023/06/19 05:37:43;;;;;;;9.15;8.45;;;;;;;-141.84;52.73;21732.84;4978705;28;20212;-65
2023/06/19 05:40:13;;;;;;;8.75;8.05;;;;;;;-141.84;52.50;21714.56;4972684;28;20216;-66
2023/06/19 05:42:42;;;;;;;10.55;9.02;;;;;;;-141.84;51.67;21730.81;4972612;28;20192;-65
2023/06/19 05:45:11;;;;;;;10.55;9.57;;;;;;;-141.84;51.47;21722.69;4972465;28;20215;-65
2023/06/19 05:47:40;;;;;;;8.18;7.47;;;;;;;-141.84;51.82;21722.69;4972432;28;20660;-66
2023/06/19 05:50:09;;;;;;;9.77;8.82;;;;;;;-141.84;51.50;21745.06;4990216;28;20206;-66
2023/06/19 05:52:41;;;;;;;9.55;8.75;;;;;;;-141.84;51.44;21753.19;4991770;28;20246;-66
2023/06/19 05:55:10;;;;;;;9.60;8.77;;;;;;;-141.84;52.03;21732.84;4991512;28;20227;-66
2023/06/19 05:57:40;;;;;;;10.45;9.45;;;;;;;-141.84;53.14;21694.22;4991848;28;20215;-65
2023/06/19 06:00:12;;;;;;;9.32;8.40;;;;;;;-141.84;54.04;21686.09;4991546;28;20260;-65
2023/06/19 06:02:41;;;;;;;9.85;9.02;;;;;;;-141.84;54.41;21655.59;4991945;28;20242;-65
2023/06/19 06:05:10;;;;;;;9.93;9.02;;;;;;;-141.84;54.20;21673.88;4991583;28;20594;-65
2023/06/19 06:07:39;;;;;;;17.42;10.18;;;;;;;-141.84;54.14;21726.75;4991495;28;20283;-66
2023/06/19 06:10:10;;;;;;;9.75;8.90;;;;;;;-141.84;53.34;21761.31;4991371;28;20220;-65
2023/06/19 06:12:40;;;;;;;9.20;8.30;;;;;;;-141.84;53.19;21736.94;4991679;28;20637;-65
2023/06/19 06:15:09;;;;;;;12.50;10.00;;;;;;;-141.84;53.03;21761.31;4991810;28;20358;-67
2023/06/19 06:17:37;;;;;;;10.70;9.80;;;;;;;-141.84;52.35;21759.28;4991739;28;20261;-64
2023/06/19 06:20:11;;;;;;;10.00;9.10;;;;;;;-141.84;53.01;21745.06;4990170;28;20648;-63
2023/06/19 06:22:40;;;;;;;12.20;9.57;;;;;;;-141.84;52.83;21830.47;4991600;28;20246;-68
2023/06/19 06:25:10;;;;;;;11.25;10.15;;;;;;;-141.84;54.81;21773.53;4994956;28;20279;-67
2023/06/19 06:27:42;;;;;;;13.63;9.18;;;;;;;-141.84;54.09;21747.09;4994754;28;20677;-67
2023/06/19 06:30:12;;;;;;;10.60;9.57;;;;;;;-141.84;55.57;21659.66;4993180;28;20192;-65
2023/06/19 06:32:41;;;;;;;11.45;9.73;;;;;;;-141.84;55.98;21673.88;4998435;28;20206;-65
2023/06/19 06:35:10;;;;;;;10.45;9.52;;;;;;;-141.84;56.43;21639.31;5014070;28;20201;-63
2023/06/19 06:37:38;;;;;;;9.63;8.82;;;;;;;-141.84;57.46;21590.53;5000787;28;20207;-64
2023/06/19 06:40:10;;;;;;;11.75;10.65;;;;;;;-141.84;58.48;21621.03;4994685;28;20315;-64
2023/06/19 06:42:40;;;;;;;14.32;10.60;;;;;;;-141.84;59.07;21564.09;4994694;28;20203;-63
2023/06/19 06:45:09;;;;;;;10.68;9.68;;;;;;;-141.84;60.07;21533.59;4992078;28;20265;-63
2023/06/19 06:47:39;;;;;;;11.93;10.75;;;;;;;-141.84;61.50;21551.91;4990069;28;20199;-64
2023/06/19 06:50:09;;;;;;;11.98;10.68;;;;;;;-141.84;60.81;21543.75;4985105;28;20267;-66
2023/06/19 06:52:38;;;;;;;11.10;10.05;;;;;;;-141.84;59.90;21562.06;4978510;28;20242;-65
2023/06/19 06:55:07;;;;;;;11.98;10.63;;;;;;;-141.84;60.55;21535.63;4997723;28;20261;-62
2023/06/19 06:57:36;;;;;;;12.38;11.25;;;;;;;-141.84;61.73;21499.03;4994260;28;20210;-65
2023/06/19 07:00:09;;;;;;;10.48;9.57;;;;;;;-141.84;62.90;21499.03;4994299;28;20294;-68
2023/06/19 07:02:40;;;;;;;12.38;10.82;;;;;;;-141.84;63.88;21429.91;4993902;28;20207;-68
2023/06/19 07:05:09;;;;;;;12.65;11.35;;;;;;;-141.84;64.15;21425.84;4994234;28;20199;-69
2023/06/19 07:07:38;;;;;;;12.02;10.80;;;;;;;-141.84;64.56;21429.91;5004558;28;20208;-68
2023/06/19 07:10:07;;;;;;;12.35;11.10;;;;;;;-141.84;65.34;21431.94;4993337;28;21092;-68
2023/06/19 07:12:36;;;;;;;12.32;11.13;;;;;;;-141.84;66.14;21403.47;4994102;28;20286;-64
2023/06/19 07:15:07;;;;;;;11.25;10.15;;;;;;;-141.84;65.93;21436.00;4993987;28;20199;-65
2023/06/19 07:17:35;;;;;;;11.43;10.43;;;;;;;-141.84;65.02;21470.56;5001628;28;20207;-64
2023/06/19 07:20:04;;;;;;;10.57;9.68;;;;;;;-141.84;64.27;21505.13;4994368;28;20287;-63
2023/06/19 07:22:33;;;;;;;11.73;10.63;;;;;;;-141.84;62.44;21574.25;4994691;28;20341;-64
2023/06/19 07:25:03;;;;;;;11.25;10.25;;;;;;;-141.84;60.97;21637.28;4994753;28;20286;-64
2023/06/19 07:27:32;;;;;;;12.10;11.00;;;;;;;-141.84;60.16;21716.59;4994218;28;20203;-65
2023/06/19 07:30:01;;;;;;;11.57;10.55;;;;;;;-141.84;60.99;21677.97;4994796;28;20627;-63
2023/06/19 07:32:30;;;;;;;9.63;8.82;;;;;;;-141.84;61.29;21698.28;4992792;28;20299;-64
2023/06/19 07:34:59;;;;;;;9.52;8.73;;;;;;;-141.84;60.84;21730.81;4992309;28;20201;-63
2023/06/19 07:37:27;;;;;;;9.85;8.95;;;;;;;-141.84;61.00;21743.03;4997282;28;20272;-63
2023/06/19 07:39:56;;;;;;;10.05;9.18;;;;;;;-141.84;60.84;21745.06;5006157;28;20238;-64
2023/06/19 07:42:25;;;;;;;11.77;10.60;;;;;;;-141.84;60.10;21767.44;4994992;28;20769;-65
2023/06/19 07:44:53;;;;;;;11.23;10.23;;;;;;;-141.84;59.92;21789.78;5002769;28;20231;-66
2023/06/19 07:47:22;;;;;;;10.75;9.80;;;;;;;-141.84;60.16;21781.66;5000136;28;20329;-65
2023/06/19 07:49:52;;;;;;;10.95;9.93;;;;;;;-141.84;59.73;21802.00;4999586;28;20231;-66
2023/06/19 07:52:20;;;;;;;11.30;10.20;;;;;;;-141.84;59.65;21793.84;4997773;28;20246;-68
2023/06/19 07:54:53;;;;;;;14.57;11.13;;;;;;;-141.84;59.41;21822.31;4993141;28;20303;-68
2023/06/19 07:57:22;;;;;;;11.45;10.35;;;;;;;-141.84;58.66;21881.28;4993047;28;20652;-68
2023/06/19 07:59:51;;;;;;;12.30;9.93;;;;;;;-141.84;57.88;21952.47;4978383;28;20211;-69
2023/06/19 08:02:20;;;;;;;9.95;9.05;;;;;;;-141.84;56.51;22009.41;4993866;28;20227;-67
2023/06/19 08:04:48;;;;;;;10.93;9.80;;;;;;;-141.84;55.68;22046.00;4993513;28;20199;-67
2023/06/19 08:07:18;;;;;;;10.75;9.60;;;;;;;-141.84;54.98;22068.38;4993326;28;20218;-69
2023/06/19 08:09:48;;;;;;;10.55;9.35;;;;;;;-141.84;54.62;22098.88;4992726;28;20243;-68
2023/06/19 08:12:31;;;;;;;10.60;9.57;;;;;;;-141.84;54.24;22111.09;4942887;28;20199;-68
2023/06/19 08:15:00;;;;;;;13.07;9.55;;;;;;;-141.84;54.39;22082.63;4992003;28;20289;-62
2023/06/19 08:17:28;;;;;;;9.85;8.88;;;;;;;-141.84;54.32;22115.16;4988917;28;20597;-68
2023/06/19 08:19:57;;;;;;;10.32;9.43;;;;;;;-141.84;53.70;22131.41;4992245;28;20214;-68
2023/06/19 08:22:27;;;;;;;11.02;9.80;;;;;;;-141.84;52.36;22163.94;4992542;28;20365;-68
2023/06/19 08:24:56;;;;;;;11.10;9.77;;;;;;;-141.84;51.43;22257.50;4992631;28;20845;-65
2023/06/19 08:27:25;;;;;;;10.70;9.60;;;;;;;-141.84;50.12;22359.19;4992812;28;20286;-68
2023/06/19 08:29:54;;;;;;;11.25;9.75;;;;;;;-141.84;49.51;22487.31;4992023;28;20209;-69
2023/06/19 08:32:22;;;;;;;10.73;9.63;;;;;;;-141.84;47.60;22595.09;4992482;28;20316;-64
2023/06/19 08:34:51;;;;;;;10.48;9.48;;;;;;;-141.84;46.50;22713.06;4988252;28;20195;-66
2023/06/19 08:37:20;;;;;;;10.55;9.45;;;;;;;-141.84;46.41;22743.56;4992483;28;20227;-65
2023/06/19 08:39:50;;;;;;;9.68;8.57;;;;;;;-141.84;45.54;22843.22;4991928;28;20780;-66
2023/06/19 08:42:18;;;;;;;10.10;9.10;;;;;;;-141.84;44.79;22857.47;4991663;28;20891;-66
2023/06/19 08:44:47;;;;;;;9.70;8.95;;;;;;;-141.84;44.64;22930.69;4992073;28;20231;-66
2023/06/19 08:47:16;;;;;;;14.88;10.00;;;;;;;-141.84;44.34;22944.94;4990984;28;20234;-66
2023/06/19 08:49:44;;;;;;;15.07;10.88;;;;;;;-141.84;43.40;23089.34;4991000;28;20595;-66
2023/06/19 08:52:13;;;;;;;10.55;9.50;;;;;;;-141.84;43.57;23054.75;4990829;28;20203;-68
2023/06/19 08:54:45;;;;;;;11.98;9.90;;;;;;;-141.84;42.77;23128.00;4991848;28;20207;-64
2023/06/19 08:57:15;;;;;;;12.07;9.45;;;;;;;-141.84;42.74;23174.78;4991165;28;20706;-64
2023/06/19 08:59:50;;;;;;;11.27;9.70;;;;;;;-141.84;42.39;23219.53;4984164;28;20207;-65
2023/06/19 09:02:20;;;;;;;10.65;9.32;;;;;;;-141.84;41.32;23317.16;4991467;28;20221;-64
2023/06/19 09:04:48;;;;;;;10.25;9.20;;;;;;;-141.84;40.98;23329.38;4991136;28;20203;-64
2023/06/19 09:07:17;;;;;;;9.77;8.93;;;;;;;-141.84;40.80;23339.53;4990336;28;20662;-69
2023/06/19 09:09:47;;;;;;;10.15;8.57;;;;;;;-141.84;40.34;23439.22;4989285;28;20234;-69
2023/06/19 09:12:17;;;;;;;9.63;8.93;;;;;;;-141.84;39.87;23447.34;4991576;28;20204;-68
2023/06/19 09:14:47;;;;;;;10.18;9.27;;;;;;;-141.84;39.17;23469.72;4991779;28;20191;-67
2023/06/19 09:17:20;;;;;;;13.48;9.48;;;;;;;-141.84;39.25;23540.94;4991803;28;20269;-76
2023/06/19 09:19:49;;;;;;;9.70;8.70;;;;;;;-141.84;38.70;23567.38;4991801;28;20199;-77
2023/06/19 09:22:19;;;;;;;8.82;8.00;;;;;;;-141.84;38.58;23656.88;4991357;28;20702;-74
2023/06/19 09:24:49;;;;;;;9.05;7.95;;;;;;;-141.84;37.44;23754.53;4992112;28;20397;-67
2023/06/19 09:27:20;;;;;;;9.00;8.13;;;;;;;-141.84;36.96;23726.06;4990845;28;21599;-66
2023/06/19 09:29:51;;;;;;;9.55;8.48;;;;;;;-141.84;35.74;23687.41;4994868;28;20210;-61
2023/06/19 09:32:20;;;;;;;8.73;8.02;;;;;;;-141.84;35.64;23742.34;4990775;28;20195;-62
2023/06/19 09:34:51;;;;;;;8.80;7.90;;;;;;;-141.84;35.65;23807.44;4995430;28;20206;-62
2023/06/19 09:37:24;;;;;;;9.23;8.07;;;;;;;-141.84;35.78;23825.75;5003087;28;20294;-65
2023/06/19 09:39:55;;;;;;;9.35;8.45;;;;;;;-141.84;35.67;23660.97;4991545;28;20648;-64
2023/06/19 09:42:30;;;;;;;9.27;8.32;;;;;;;-141.84;35.72;23650.78;4992150;28;20207;-63
2023/06/19 09:45:04;;;;;;;9.73;8.25;;;;;;;-141.84;36.02;23567.38;4992004;28;20211;-64
2023/06/19 09:47:36;;;;;;;8.50;7.65;;;;;;;-141.84;36.54;23553.13;5003863;28;20196;-65
2023/06/19 09:50:07;;;;;;;9.50;8.60;;;;;;;-141.84;36.58;23575.50;4978419;28;20206;-64
2023/06/19 09:52:35;;;;;;;8.98;8.18;;;;;;;-141.84;36.64;23636.53;4992233;28;20231;-65
2023/06/19 09:55:08;;;;;;;9.88;8.48;;;;;;;-141.84;36.63;23728.09;4991799;28;20207;-62
2023/06/19 09:57:38;;;;;;;9.30;8.15;;;;;;;-141.84;37.13;23726.06;4993043;28;20203;-61
2023/06/19 10:00:12;;;;;;;9.32;8.32;;;;;;;-141.84;36.73;23852.19;4995403;28;20235;-66
2023/06/19 10:02:42;;;;;;;9.20;8.30;;;;;;;-141.84;36.58;23850.16;4995081;28;20553;-66
2023/06/19 10:05:13;;;;;;;9.70;8.80;;;;;;;-141.84;36.01;23868.47;4995570;28;20199;-64
2023/06/19 10:07:44;;;;;;;8.95;8.15;;;;;;;-141.84;35.77;23990.53;4995625;28;20210;-65
2023/06/19 10:10:23;;;;;;;9.95;8.82;;;;;;;-141.84;35.59;23966.13;4995291;28;20297;-64
2023/06/19 10:12:55;;;;;;;9.18;8.48;;;;;;;-141.84;35.62;23955.94;4995499;28;20192;-66
2023/06/19 10:15:26;;;;;;;10.10;8.60;;;;;;;-141.84;35.38;24130.94;4986107;28;20224;-69
2023/06/19 10:18:00;;;;;;;11.48;9.32;;;;;;;-141.84;34.58;24259.09;5006350;28;20694;-67
2023/06/19 10:20:31;;;;;;;9.32;8.43;;;;;;;-141.84;34.34;24377.13;4995937;28;20285;-66
2023/06/19 10:23:03;;;;;;;10.07;9.18;;;;;;;-141.84;34.44;24417.81;5001938;28;20674;-67
2023/06/19 10:25:34;;;;;;;10.25;9.35;;;;;;;-141.84;34.08;24562.28;5003677;28;20250;-69
2023/06/19 10:28:07;;;;;;;9.90;8.85;;;;;;;-141.84;33.72;24550.06;5007032;28;20577;-64
2023/06/19 10:30:35;;;;;;;9.93;9.15;;;;;;;-141.84;34.34;24491.06;5006892;28;20229;-66
2023/06/19 10:33:04;;;;;;;10.50;9.55;;;;;;;-141.84;34.51;24403.56;5010323;28;20241;-66
2023/06/19 10:35:40;;;;;;;10.38;9.38;;;;;;;-141.84;33.92;24462.59;5012417;28;20323;-65
2023/06/19 10:38:09;;;;;;;9.88;8.95;;;;;;;-141.84;34.88;24430.03;5006677;28;20207;-66
2023/06/19 10:40:38;;;;;;;10.35;9.10;;;;;;;-141.84;34.16;24521.59;4994416;28;20668;-65
2023/06/19 10:43:08;;;;;;;10.00;9.10;;;;;;;-141.84;34.44;24580.59;4993431;28;20223;-65
2023/06/19 10:45:36;;;;;;;10.50;9.20;;;;;;;-141.84;34.34;24594.84;4994282;28;20203;-66
2023/06/19 10:48:05;;;;;;;9.93;9.10;;;;;;;-141.84;35.33;24419.84;4994100;28;20261;-66
2023/06/19 10:50:43;;;;;;;9.85;8.95;;;;;;;-141.84;35.31;24307.94;4994693;28;20207;-66
2023/06/19 10:53:11;;;;;;;12.95;9.35;;;;;;;-141.84;35.36;24409.69;4994471;28;20291;-66
2023/06/19 10:55:40;;;;;;;9.80;8.90;;;;;;;-141.84;35.18;24495.13;4994051;28;20234;-66
2023/06/19 10:58:09;;;;;;;10.25;9.32;;;;;;;-141.84;34.32;24474.78;4994183;28;20209;-65
2023/06/19 11:00:38;;;;;;;9.88;9.07;;;;;;;-141.84;35.01;24442.22;4994364;28;20211;-68
2023/06/19 11:03:07;;;;;;;9.98;9.18;;;;;;;-141.84;34.35;24474.78;4994508;28;20282;-68
2023/06/19 11:05:35;;;;;;;12.32;9.70;;;;;;;-141.84;34.32;24377.13;4991205;28;20783;-67
2023/06/19 11:08:04;;;;;;;9.25;8.35;;;;;;;-141.84;34.79;24334.41;4992963;28;20238;-65
2023/06/19 11:10:33;;;;;;;9.63;8.82;;;;;;;-141.84;34.92;24316.06;4989562;28;20259;-67
2023/06/19 11:13:01;;;;;;;10.15;9.20;;;;;;;-141.84;34.71;24346.59;4984312;28;20298;-66
2023/06/19 11:15:32;;;;;;;9.82;8.75;;;;;;;-141.84;34.73;24419.84;4989422;28;20207;-67
2023/06/19 11:18:02;;;;;;;10.30;9.40;;;;;;;-141.84;34.15;24527.69;4983181;28;20269;-66
2023/06/19 11:20:31;;;;;;;10.05;9.25;;;;;;;-141.84;33.98;24635.53;4988336;28;20211;-66
2023/06/19 11:23:01;;;;;;;11.05;10.13;;;;;;;-141.84;34.04;24639.63;4992109;28;20204;-67
2023/06/19 11:25:37;;;;;;;10.45;9.50;;;;;;;-141.84;34.05;24495.13;4990665;28;20207;-66
2023/06/19 11:28:06;;;;;;;10.52;9.63;;;;;;;-141.84;34.29;24444.28;4992812;28;20207;-66